Time;durP1;ratioP1;P1;durP2;ratioP2;P2;SDS_P1;SDS_P2;PMS_P1;PMS_P2;Temp;Humidity;BMP_temperature;BMP_pressure;BME280_temperature;BME280_humidity;BME280_pressure;Samples;Min_cycle;Max_cycle;Signal;HPM_P1;HPM_P2
2023/05/27 00:00:25;;;;;;;4.23;3.83;;;;;;;;;;5048006;28;20204;-78
2023/05/27 00:02:52;;;;;;;3.40;3.10;;;;;;;;;;5047624;28;20576;-79
2023/05/27 00:05:18;;;;;;;2.67;2.47;;;;;;;;;;5048466;28;20201;-78
2023/05/27 00:07:45;;;;;;;3.07;2.87;;;;;;;;;;5048249;28;20354;-78
2023/05/27 00:10:12;;;;;;;3.20;2.83;;;;;;;;;;5047948;28;20203;-78
2023/05/27 00:12:40;;;;;;;3.73;3.00;;;;;;;;;;5047578;28;20652;-78
2023/05/27 00:15:08;;;;;;;3.00;2.80;;;;;;;;;;5048655;28;20649;-78
2023/05/27 00:17:34;;;;;;;3.67;2.50;;;;;;;;;;5047744;28;20575;-77
2023/05/27 00:20:08;;;;;;;3.50;3.20;;;;;;;;;;5047922;28;20258;-78
2023/05/27 00:22:36;;;;;;;2.87;2.67;;;;;;;;;;5034343;28;20206;-78
2023/05/27 00:25:03;;;;;;;3.53;2.73;;;;;;;;;;5048039;28;20207;-78
2023/05/27 00:27:30;;;;;;;2.70;2.50;;;;;;;;;;5047369;28;20200;-78
2023/05/27 00:29:58;;;;;;;2.73;2.53;;;;;;;;;;5047891;28;20232;-78
2023/05/27 00:32:25;;;;;;;4.73;3.13;;;;;;;;;;5046818;28;20214;-78
2023/05/27 00:34:52;;;;;;;3.83;3.50;;;;;;;;;;5047798;28;20207;-79
2023/05/27 00:37:19;;;;;;;3.30;3.10;;;;;;;;;;5047661;28;20205;-78
2023/05/27 00:39:45;;;;;;;5.37;3.43;;;;;;;;;;5048104;28;20201;-78
2023/05/27 00:42:12;;;;;;;3.60;3.30;;;;;;;;;;5047596;28;20212;-78
2023/05/27 00:44:39;;;;;;;3.90;2.90;;;;;;;;;;5047338;28;20208;-78
2023/05/27 00:47:07;;;;;;;4.23;2.87;;;;;;;;;;5047058;28;20223;-78
2023/05/27 00:49:34;;;;;;;2.97;2.77;;;;;;;;;;5047890;28;20237;-78
2023/05/27 00:52:01;;;;;;;3.20;2.93;;;;;;;;;;5047433;28;20205;-78
2023/05/27 00:54:31;;;;;;;2.93;2.67;;;;;;;;;;5047503;28;20210;-78
2023/05/27 00:56:58;;;;;;;3.80;3.50;;;;;;;;;;5047012;28;20211;-78
2023/05/27 00:59:24;;;;;;;3.67;3.33;;;;;;;;;;5047501;28;20243;-78
2023/05/27 01:01:51;;;;;;;3.90;3.60;;;;;;;;;;5047431;28;20207;-78
2023/05/27 01:04:19;;;;;;;3.87;3.17;;;;;;;;;;5047484;28;20210;-78
2023/05/27 01:06:51;;;;;;;3.20;3.00;;;;;;;;;;5021745;28;20206;-78
2023/05/27 01:09:21;;;;;;;4.63;3.50;;;;;;;;;;5047328;28;20640;-78
2023/05/27 01:11:52;;;;;;;5.20;4.73;;;;;;;;;;5047241;28;20206;-78
2023/05/27 01:14:19;;;;;;;4.00;3.70;;;;;;;;;;5046984;28;20255;-78
2023/05/27 01:16:47;;;;;;;10.47;4.07;;;;;;;;;;5046756;28;20674;-78
2023/05/27 01:19:16;;;;;;;5.40;4.00;;;;;;;;;;5046817;28;20227;-78
2023/05/27 01:21:50;;;;;;;5.00;4.30;;;;;;;;;;5047116;28;20213;-78
2023/05/27 01:24:18;;;;;;;3.67;3.40;;;;;;;;;;5046827;28;21699;-78
2023/05/27 01:26:45;;;;;;;4.07;3.63;;;;;;;;;;5046590;28;20251;-78
2023/05/27 01:29:11;;;;;;;3.83;3.53;;;;;;;;;;5046522;28;20238;-78
2023/05/27 01:31:43;;;;;;;4.90;4.47;;;;;;;;;;5046827;28;20209;-78
2023/05/27 01:34:11;;;;;;;4.67;3.60;;;;;;;;;;5049033;28;20207;-78
2023/05/27 01:36:41;;;;;;;4.10;3.80;;;;;;;;;;5050593;28;20202;-78
2023/05/27 01:39:11;;;;;;;8.93;4.10;;;;;;;;;;5050036;28;20704;-78
2023/05/27 01:41:39;;;;;;;4.57;4.03;;;;;;;;;;5050129;28;20212;-78
2023/05/27 01:44:07;;;;;;;4.47;4.07;;;;;;;;;;5050062;28;20670;-78
2023/05/27 01:46:34;;;;;;;4.77;4.33;;;;;;;;;;5049995;28;20213;-78
2023/05/27 01:49:00;;;;;;;4.03;3.73;;;;;;;;;;5050305;28;20239;-78
2023/05/27 01:51:27;;;;;;;4.43;4.13;;;;;;;;;;5049777;28;20628;-79
2023/05/27 01:53:54;;;;;;;4.50;3.77;;;;;;;;;;5049864;28;20206;-80
2023/05/27 01:56:22;;;;;;;4.13;3.47;;;;;;;;;;5050041;28;20202;-79
2023/05/27 01:58:50;;;;;;;3.90;3.50;;;;;;;;;;5049486;28;20792;-79
2023/05/27 02:01:17;;;;;;;4.10;3.77;;;;;;;;;;5049990;28;20705;-79
2023/05/27 02:03:43;;;;;;;5.27;4.00;;;;;;;;;;5024426;28;20240;-79
2023/05/27 02:06:10;;;;;;;5.30;3.90;;;;;;;;;;5049253;28;20264;-79
2023/05/27 02:08:37;;;;;;;3.70;3.43;;;;;;;;;;5049698;28;20231;-78
2023/05/27 02:11:03;;;;;;;5.07;3.60;;;;;;;;;;5049259;27;20210;-79
2023/05/27 02:13:30;;;;;;;4.03;3.73;;;;;;;;;;5049833;28;20204;-78
2023/05/27 02:15:58;;;;;;;4.47;3.40;;;;;;;;;;5049436;28;20215;-79
2023/05/27 02:18:25;;;;;;;3.93;3.17;;;;;;;;;;5049999;28;20209;-80
2023/05/27 02:20:52;;;;;;;3.40;3.20;;;;;;;;;;5049381;28;20203;-79
2023/05/27 02:23:18;;;;;;;4.77;4.37;;;;;;;;;;5050056;28;20206;-79
2023/05/27 02:25:45;;;;;;;3.60;3.30;;;;;;;;;;5049121;28;20262;-79
2023/05/27 02:28:12;;;;;;;4.00;3.70;;;;;;;;;;5049481;28;20278;-79
2023/05/27 02:30:39;;;;;;;3.87;3.47;;;;;;;;;;5049510;28;20207;-79
2023/05/27 02:33:07;;;;;;;3.93;3.63;;;;;;;;;;5049307;28;20678;-79
2023/05/27 02:35:34;;;;;;;5.97;3.60;;;;;;;;;;5048806;28;20213;-79
2023/05/27 02:38:01;;;;;;;3.73;3.43;;;;;;;;;;5049405;28;20205;-79
2023/05/27 02:40:28;;;;;;;4.17;3.50;;;;;;;;;;5049396;28;20218;-80
2023/05/27 02:42:56;;;;;;;4.30;3.53;;;;;;;;;;5049495;28;20239;-79
2023/05/27 02:45:23;;;;;;;3.73;3.53;;;;;;;;;;5048679;28;20752;-79
2023/05/27 02:47:50;;;;;;;3.23;3.03;;;;;;;;;;5049133;28;20258;-79
2023/05/27 02:50:18;;;;;;;4.13;3.73;;;;;;;;;;5049434;28;20668;-79
2023/05/27 02:52:45;;;;;;;3.70;3.40;;;;;;;;;;5048316;28;20210;-79
2023/05/27 02:55:12;;;;;;;3.27;3.07;;;;;;;;;;5045649;28;20252;-79
2023/05/27 02:57:39;;;;;;;3.37;3.17;;;;;;;;;;5039803;28;20268;-79
2023/05/27 03:00:08;;;;;;;3.17;2.93;;;;;;;;;;5049060;28;20227;-79
2023/05/27 03:02:35;;;;;;;3.50;3.20;;;;;;;;;;5049249;28;20286;-79
2023/05/27 03:05:02;;;;;;;3.27;3.07;;;;;;;;;;5048843;28;20267;-79
2023/05/27 03:07:30;;;;;;;4.13;3.37;;;;;;;;;;5048847;28;20261;-80
2023/05/27 03:09:57;;;;;;;3.17;2.97;;;;;;;;;;5039213;28;20227;-79
2023/05/27 03:12:24;;;;;;;3.23;3.03;;;;;;;;;;5040644;28;20701;-79
2023/05/27 03:14:50;;;;;;;3.57;3.27;;;;;;;;;;5048600;28;20209;-79
2023/05/27 03:17:18;;;;;;;3.83;3.53;;;;;;;;;;5048048;28;20209;-78
2023/05/27 03:19:45;;;;;;;3.87;3.60;;;;;;;;;;5048579;28;20213;-79
2023/05/27 03:22:12;;;;;;;3.23;3.03;;;;;;;;;;5048912;28;20280;-79
2023/05/27 03:24:40;;;;;;;4.67;4.27;;;;;;;;;;5048057;28;20206;-79
2023/05/27 03:27:07;;;;;;;4.10;3.80;;;;;;;;;;5048286;28;20623;-79
2023/05/27 03:29:33;;;;;;;3.80;3.50;;;;;;;;;;5048276;28;20233;-79
2023/05/27 03:32:00;;;;;;;3.67;3.37;;;;;;;;;;5048598;28;20252;-79
2023/05/27 03:34:27;;;;;;;3.30;3.07;;;;;;;;;;5047881;28;20256;-81
2023/05/27 03:36:54;;;;;;;3.33;2.97;;;;;;;;;;5048484;28;20215;-79
2023/05/27 03:39:20;;;;;;;3.30;3.10;;;;;;;;;;5047722;28;20696;-79
2023/05/27 03:41:48;;;;;;;4.10;3.43;;;;;;;;;;5048398;28;20268;-79
2023/05/27 03:44:15;;;;;;;4.03;3.70;;;;;;;;;;5022534;28;20196;-78
2023/05/27 03:46:42;;;;;;;3.77;3.47;;;;;;;;;;5047956;28;20264;-79
2023/05/27 03:49:09;;;;;;;3.97;3.43;;;;;;;;;;5048822;28;20232;-79
2023/05/27 03:51:36;;;;;;;3.73;3.27;;;;;;;;;;5048127;28;20276;-79
2023/05/27 03:54:02;;;;;;;5.20;3.00;;;;;;;;;;5047631;28;20236;-79
2023/05/27 03:56:29;;;;;;;3.73;3.40;;;;;;;;;;5046831;28;20201;-80
2023/05/27 03:58:57;;;;;;;3.87;3.57;;;;;;;;;;5031133;28;20264;-79
2023/05/27 04:01:24;;;;;;;6.93;5.57;;;;;;;;;;5048302;28;20658;-79
2023/05/27 04:03:51;;;;;;;4.37;3.63;;;;;;;;;;5047212;28;20213;-79
2023/05/27 04:06:17;;;;;;;4.47;4.07;;;;;;;;;;5048083;28;20241;-78
2023/05/27 04:08:44;;;;;;;12.03;10.77;;;;;;;;;;5047745;28;20204;-78
2023/05/27 04:11:12;;;;;;;45.17;39.10;;;;;;;;;;5047100;28;20265;-79
2023/05/27 04:13:38;;;;;;;12.97;11.67;;;;;;;;;;5046978;28;20205;-79
2023/05/27 04:16:07;;;;;;;16.73;8.97;;;;;;;;;;5047801;28;20633;-80
2023/05/27 04:18:33;;;;;;;9.30;8.43;;;;;;;;;;5031769;28;20247;-79
2023/05/27 04:21:00;;;;;;;8.07;5.57;;;;;;;;;;5032259;28;20703;-80
2023/05/27 04:23:27;;;;;;;6.10;5.60;;;;;;;;;;5047563;28;20201;-79
2023/05/27 04:25:53;;;;;;;4.13;3.83;;;;;;;;;;5047933;28;20750;-79
2023/05/27 04:28:21;;;;;;;3.63;3.27;;;;;;;;;;5047619;28;20208;-79
2023/05/27 04:30:50;;;;;;;5.57;3.43;;;;;;;;;;5047273;28;20231;-79
2023/05/27 04:33:18;;;;;;;4.17;3.77;;;;;;;;;;5047323;28;20786;-79
2023/05/27 04:35:47;;;;;;;4.30;3.90;;;;;;;;;;5046923;28;20212;-79
2023/05/27 04:38:15;;;;;;;5.73;5.13;;;;;;;;;;5047226;28;20210;-80
2023/05/27 04:40:44;;;;;;;3.70;3.40;;;;;;;;;;5047449;28;20303;-79
2023/05/27 04:43:14;;;;;;;3.27;3.07;;;;;;;;;;5046980;28;20207;-80
2023/05/27 04:45:41;;;;;;;3.43;3.13;;;;;;;;;;5047580;28;20675;-79
2023/05/27 04:48:10;;;;;;;3.07;2.43;;;;;;;;;;5047715;28;20635;-79
2023/05/27 04:50:39;;;;;;;2.97;2.30;;;;;;;;;;5046802;28;20725;-79
2023/05/27 04:53:05;;;;;;;2.97;2.77;;;;;;;;;;5047186;28;20201;-79
2023/05/27 04:55:32;;;;;;;3.20;2.43;;;;;;;;;;5047107;28;20692;-79
2023/05/27 04:58:02;;;;;;;3.97;2.87;;;;;;;;;;5034496;28;20205;-79
2023/05/27 05:00:38;;;;;;;2.53;2.33;;;;;;;;;;5038612;28;20648;-79
2023/05/27 05:03:06;;;;;;;3.00;2.80;;;;;;;;;;5046896;28;20208;-79
2023/05/27 05:05:37;;;;;;;2.77;2.53;;;;;;;;;;5046634;28;20220;-79
2023/05/27 05:08:04;;;;;;;3.53;2.93;;;;;;;;;;5049630;28;20253;-79
2023/05/27 05:10:31;;;;;;;8.90;3.80;;;;;;;;;;5050629;28;20232;-80
2023/05/27 05:12:57;;;;;;;2.87;2.67;;;;;;;;;;5050722;28;20201;-79
2023/05/27 05:15:24;;;;;;;5.30;3.07;;;;;;;;;;5050085;28;20204;-78
2023/05/27 05:17:51;;;;;;;4.07;3.77;;;;;;;;;;5050185;28;20262;-78
2023/05/27 05:20:25;;;;;;;203.67;36.43;;;;;;;;;;5050517;28;20212;-78
2023/05/27 05:22:53;;;;;;;3.77;3.00;;;;;;;;;;5050097;28;20209;-79
2023/05/27 05:25:20;;;;;;;3.33;3.03;;;;;;;;;;5051031;28;20208;-79
2023/05/27 05:27:47;;;;;;;3.17;2.90;;;;;;;;;;5049666;28;20208;-79
2023/05/27 05:30:14;;;;;;;3.27;2.97;;;;;;;;;;5050759;28;20233;-79
2023/05/27 05:32:41;;;;;;;3.57;3.20;;;;;;;;;;5050572;28;20222;-78
2023/05/27 05:35:08;;;;;;;3.93;3.30;;;;;;;;;;5050275;28;20585;-79
2023/05/27 05:37:35;;;;;;;5.83;3.60;;;;;;;;;;5044803;28;20218;-79
2023/05/27 05:40:03;;;;;;;2.77;2.43;;;;;;;;;;5042849;28;20204;-79
2023/05/27 05:42:30;;;;;;;3.43;3.13;;;;;;;;;;5049821;28;20234;-79
2023/05/27 05:44:57;;;;;;;3.43;3.10;;;;;;;;;;5050658;28;20219;-79
2023/05/27 05:47:24;;;;;;;3.80;3.40;;;;;;;;;;5049426;28;20228;-79
2023/05/27 05:49:50;;;;;;;3.20;2.77;;;;;;;;;;5050331;28;20236;-79
2023/05/27 05:52:17;;;;;;;6.67;3.50;;;;;;;;;;5049861;28;20204;-79
2023/05/27 05:54:44;;;;;;;2.97;2.77;;;;;;;;;;5037035;28;20213;-79
2023/05/27 05:57:13;;;;;;;4.17;3.77;;;;;;;;;;5023659;28;21040;-79
2023/05/27 05:59:40;;;;;;;4.50;3.67;;;;;;;;;;5050146;28;20212;-79
2023/05/27 06:02:07;;;;;;;3.30;3.03;;;;;;;;;;5049759;28;20211;-79
2023/05/27 06:04:34;;;;;;;3.20;2.90;;;;;;;;;;5049497;28;20213;-79
2023/05/27 06:07:00;;;;;;;3.43;3.13;;;;;;;;;;5049507;28;20206;-79
2023/05/27 06:09:28;;;;;;;3.93;2.90;;;;;;;;;;5049793;27;20212;-79
2023/05/27 06:11:54;;;;;;;3.27;2.97;;;;;;;;;;5049711;28;20227;-78
2023/05/27 06:14:23;;;;;;;3.20;3.00;;;;;;;;;;5048621;28;20662;-79
2023/05/27 06:16:50;;;;;;;5.00;3.20;;;;;;;;;;5048686;28;20775;-79
2023/05/27 06:19:16;;;;;;;3.80;3.13;;;;;;;;;;5046852;28;20205;-79
2023/05/27 06:21:43;;;;;;;3.50;2.70;;;;;;;;;;5048960;28;20210;-79
2023/05/27 06:24:10;;;;;;;3.23;2.90;;;;;;;;;;5048327;28;20209;-79
2023/05/27 06:26:37;;;;;;;4.70;3.43;;;;;;;;;;5048724;28;20567;-80
2023/05/27 06:29:03;;;;;;;3.10;2.80;;;;;;;;;;5049218;28;20209;-79
2023/05/27 06:31:32;;;;;;;3.40;2.83;;;;;;;;;;5049616;28;20251;-79
2023/05/27 06:33:59;;;;;;;6.23;3.27;;;;;;;;;;5036312;28;20200;-79
2023/05/27 06:36:26;;;;;;;3.40;3.10;;;;;;;;;;5049571;28;20215;-79
2023/05/27 06:38:54;;;;;;;3.23;2.70;;;;;;;;;;5049051;28;20208;-79
2023/05/27 06:41:20;;;;;;;3.17;2.87;;;;;;;;;;5049658;28;20292;-79
2023/05/27 06:43:47;;;;;;;3.27;3.03;;;;;;;;;;5047056;28;20202;-79
2023/05/27 06:46:14;;;;;;;4.27;3.10;;;;;;;;;;5036924;28;20205;-80
2023/05/27 06:48:44;;;;;;;4.23;2.90;;;;;;;;;;5048582;28;20230;-79
2023/05/27 06:51:11;;;;;;;3.07;2.80;;;;;;;;;;5049139;28;20229;-79
2023/05/27 06:53:38;;;;;;;3.43;3.10;;;;;;;;;;5049071;28;20201;-80
2023/05/27 06:56:05;;;;;;;7.73;2.93;;;;;;;;;;5049712;28;20198;-80
2023/05/27 06:58:32;;;;;;;4.30;3.30;;;;;;;;;;5047980;28;20679;-79
2023/05/27 07:00:59;;;;;;;5.40;4.90;;;;;;;;;;5048981;28;20813;-79
2023/05/27 07:03:25;;;;;;;3.63;2.87;;;;;;;;;;5048680;28;20208;-79
2023/05/27 07:05:53;;;;;;;2.97;2.77;;;;;;;;;;5048484;28;20205;-79
2023/05/27 07:08:20;;;;;;;3.60;3.03;;;;;;;;;;5048428;28;20247;-79
2023/05/27 07:10:47;;;;;;;4.97;4.17;;;;;;;;;;5049425;28;20282;-79
2023/05/27 07:13:15;;;;;;;4.77;2.97;;;;;;;;;;5048694;28;20205;-79
2023/05/27 07:15:44;;;;;;;3.30;3.10;;;;;;;;;;5048839;28;20214;-79
2023/05/27 07:18:11;;;;;;;3.07;2.77;;;;;;;;;;5043024;28;20233;-80
2023/05/27 07:20:38;;;;;;;5.20;3.60;;;;;;;;;;5041126;28;21004;-80
2023/05/27 07:23:06;;;;;;;6.93;3.10;;;;;;;;;;5048999;28;20217;-79
2023/05/27 07:25:33;;;;;;;3.30;3.03;;;;;;;;;;5035804;28;20205;-79
2023/05/27 07:28:00;;;;;;;3.73;3.43;;;;;;;;;;5034999;28;20230;-79
2023/05/27 07:30:27;;;;;;;3.37;2.80;;;;;;;;;;5033691;28;20218;-79
2023/05/27 07:32:54;;;;;;;4.73;4.33;;;;;;;;;;5048472;28;20266;-79
2023/05/27 07:35:21;;;;;;;3.80;3.50;;;;;;;;;;5048613;28;20688;-80
2023/05/27 07:37:48;;;;;;;3.93;3.57;;;;;;;;;;5048628;28;20204;-79
2023/05/27 07:40:16;;;;;;;3.40;3.10;;;;;;;;;;5048541;28;20205;-80
2023/05/27 07:42:43;;;;;;;4.10;3.03;;;;;;;;;;5048479;28;20205;-80
2023/05/27 07:45:10;;;;;;;3.67;3.17;;;;;;;;;;5048781;28;20216;-80
2023/05/27 07:47:37;;;;;;;5.63;4.00;;;;;;;;;;5047649;28;20308;-80
2023/05/27 07:50:04;;;;;;;5.23;4.20;;;;;;;;;;5048138;28;20236;-79
2023/05/27 07:52:31;;;;;;;3.17;2.97;;;;;;;;;;5048504;28;20563;-79
2023/05/27 07:54:58;;;;;;;3.13;2.83;;;;;;;;;;5047545;28;20265;-80
2023/05/27 07:57:26;;;;;;;5.20;4.70;;;;;;;;;;5031112;28;20582;-79
2023/05/27 07:59:53;;;;;;;3.80;3.50;;;;;;;;;;5048305;28;20254;-79
2023/05/27 08:02:21;;;;;;;4.57;3.80;;;;;;;;;;5048252;28;20213;-79
2023/05/27 08:04:48;;;;;;;4.03;3.73;;;;;;;;;;5048237;28;20216;-80
2023/05/27 08:07:15;;;;;;;3.30;3.03;;;;;;;;;;5014465;28;20206;-79
2023/05/27 08:09:45;;;;;;;3.40;3.10;;;;;;;;;;5042331;28;20223;-80
2023/05/27 08:12:11;;;;;;;5.27;3.53;;;;;;;;;;5047790;28;20672;-79
2023/05/27 08:14:40;;;;;;;5.33;3.97;;;;;;;;;;5041355;28;20201;-78
2023/05/27 08:17:07;;;;;;;3.27;2.87;;;;;;;;;;5047971;28;20206;-78
2023/05/27 08:19:33;;;;;;;4.67;4.10;;;;;;;;;;5047407;28;20197;-77
2023/05/27 08:22:01;;;;;;;3.63;3.33;;;;;;;;;;5047689;28;20273;-77
2023/05/27 08:24:30;;;;;;;4.17;3.77;;;;;;;;;;5046990;28;20198;-77
2023/05/27 08:26:58;;;;;;;3.13;2.93;;;;;;;;;;5047707;28;20212;-77
2023/05/27 08:29:30;;;;;;;3.80;3.50;;;;;;;;;;5047913;28;20567;-80
2023/05/27 08:31:58;;;;;;;5.17;3.37;;;;;;;;;;5047666;28;20698;-77
2023/05/27 08:34:25;;;;;;;3.70;3.47;;;;;;;;;;5047497;28;20273;-77
2023/05/27 08:36:52;;;;;;;3.83;3.40;;;;;;;;;;5046967;28;20226;-78
2023/05/27 08:39:20;;;;;;;3.53;3.23;;;;;;;;;;5047687;28;20264;-78
2023/05/27 08:41:47;;;;;;;3.57;3.37;;;;;;;;;;5046261;28;20239;-78
2023/05/27 08:44:13;;;;;;;4.00;3.70;;;;;;;;;;5035318;28;20292;-79
2023/05/27 08:46:41;;;;;;;3.67;3.37;;;;;;;;;;5044286;28;20213;-79
2023/05/27 08:49:09;;;;;;;4.30;3.90;;;;;;;;;;5047171;28;20205;-78
2023/05/27 08:51:40;;;;;;;5.83;4.07;;;;;;;;;;5047458;28;20262;-78
2023/05/27 08:54:07;;;;;;;3.67;3.37;;;;;;;;;;5047273;28;20236;-78
2023/05/27 08:56:34;;;;;;;5.07;4.67;;;;;;;;;;5033978;28;20295;-79
2023/05/27 08:59:01;;;;;;;3.77;3.47;;;;;;;;;;5047429;28;20220;-79
2023/05/27 09:01:28;;;;;;;3.90;3.60;;;;;;;;;;5047341;28;20737;-79
2023/05/27 09:03:55;;;;;;;4.53;4.13;;;;;;;;;;5047149;28;20685;-79
2023/05/27 09:06:23;;;;;;;4.10;3.80;;;;;;;;;;5021650;28;20212;-79
2023/05/27 09:08:50;;;;;;;3.90;3.50;;;;;;;;;;5047036;28;20205;-79
2023/05/27 09:11:21;;;;;;;3.60;3.30;;;;;;;;;;5046723;28;20708;-79
2023/05/27 09:13:48;;;;;;;4.03;3.73;;;;;;;;;;5045310;28;20205;-79
2023/05/27 09:16:15;;;;;;;4.10;3.37;;;;;;;;;;5030950;28;20202;-79
2023/05/27 09:18:42;;;;;;;4.40;4.00;;;;;;;;;;5046893;28;20244;-79
2023/05/27 09:21:09;;;;;;;3.93;3.63;;;;;;;;;;5046852;28;20725;-80
2023/05/27 09:23:41;;;;;;;3.87;3.57;;;;;;;;;;5046935;28;20206;-79
2023/05/27 09:26:09;;;;;;;3.90;3.60;;;;;;;;;;5046731;28;20205;-79
2023/05/27 09:28:36;;;;;;;4.50;3.70;;;;;;;;;;5046393;28;20586;-79
2023/05/27 09:31:06;;;;;;;4.27;3.87;;;;;;;;;;5046938;28;20591;-79
2023/05/27 09:33:38;;;;;;;4.73;3.93;;;;;;;;;;5046779;28;20267;-79
2023/05/27 09:36:06;;;;;;;6.13;5.63;;;;;;;;;;5047021;28;20232;-79
2023/05/27 09:38:33;;;;;;;5.37;4.00;;;;;;;;;;5046466;28;20210;-79
2023/05/27 09:41:02;;;;;;;5.40;3.97;;;;;;;;;;5046679;28;20600;-79
2023/05/27 09:43:29;;;;;;;4.50;4.10;;;;;;;;;;5046942;28;20206;-79
2023/05/27 09:46:00;;;;;;;5.80;4.07;;;;;;;;;;5046944;28;20202;-79
2023/05/27 09:48:27;;;;;;;4.70;4.13;;;;;;;;;;5045574;28;20614;-79
2023/05/27 09:50:55;;;;;;;4.33;4.03;;;;;;;;;;5047062;28;20246;-79
2023/05/27 09:53:22;;;;;;;6.37;4.00;;;;;;;;;;5046265;28;20258;-79
2023/05/27 09:55:50;;;;;;;4.43;4.13;;;;;;;;;;5050209;27;20225;-79
2023/05/27 09:58:18;;;;;;;4.47;4.10;;;;;;;;;;5049329;28;20707;-79
2023/05/27 10:00:48;;;;;;;4.17;3.80;;;;;;;;;;5050788;28;20202;-79
2023/05/27 10:03:16;;;;;;;5.40;4.83;;;;;;;;;;5049721;28;20239;-79
2023/05/27 10:05:45;;;;;;;5.87;4.23;;;;;;;;;;5049497;28;20611;-79
2023/05/27 10:08:13;;;;;;;6.50;4.40;;;;;;;;;;5049457;28;20201;-80
2023/05/27 10:10:40;;;;;;;5.53;5.03;;;;;;;;;;5048923;28;20255;-79
2023/05/27 10:13:07;;;;;;;4.97;4.57;;;;;;;;;;5049765;28;20213;-79
2023/05/27 10:15:36;;;;;;;5.20;4.70;;;;;;;;;;5049544;28;20205;-80
2023/05/27 10:18:05;;;;;;;5.37;4.17;;;;;;;;;;5047600;28;20206;-79
2023/05/27 10:20:34;;;;;;;4.77;4.20;;;;;;;;;;5050139;28;20316;-78
2023/05/27 10:23:11;;;;;;;5.27;4.53;;;;;;;;;;5049048;28;20219;-79
2023/05/27 10:25:39;;;;;;;4.87;4.47;;;;;;;;;;5049540;28;20289;-78
2023/05/27 10:28:06;;;;;;;4.80;4.37;;;;;;;;;;5049288;28;20214;-81
2023/05/27 10:30:46;;;;;;;4.57;4.17;;;;;;;;;;5038643;28;20206;-80
2023/05/27 10:33:13;;;;;;;4.70;4.30;;;;;;;;;;5035430;28;20638;-80
2023/05/27 10:35:45;;;;;;;4.77;4.37;;;;;;;;;;5050009;28;20206;-77
2023/05/27 10:38:16;;;;;;;4.93;4.30;;;;;;;;;;5049051;28;20232;-78
2023/05/27 10:40:46;;;;;;;4.47;4.10;;;;;;;;;;5049709;28;20337;-80
2023/05/27 10:43:16;;;;;;;5.03;4.00;;;;;;;;;;5049279;28;20217;-81
2023/05/27 10:45:48;;;;;;;4.70;4.07;;;;;;;;;;5049831;28;20230;-80
2023/05/27 10:48:19;;;;;;;4.60;3.97;;;;;;;;;;5049136;28;20246;-81
2023/05/27 10:50:52;;;;;;;7.77;4.50;;;;;;;;;;5049185;28;20206;-79
2023/05/27 10:53:20;;;;;;;5.17;4.70;;;;;;;;;;5049108;28;20213;-81
2023/05/27 10:55:50;;;;;;;9.00;4.87;;;;;;;;;;5049051;28;20227;-81
2023/05/27 10:58:17;;;;;;;8.20;4.33;;;;;;;;;;5033869;28;20240;-80
2023/05/27 11:00:45;;;;;;;4.50;3.87;;;;;;;;;;5049714;28;20259;-80
2023/05/27 11:03:21;;;;;;;8.47;4.50;;;;;;;;;;5036999;28;20211;-77
2023/05/27 11:05:48;;;;;;;5.30;4.50;;;;;;;;;;5044758;28;20581;-77
2023/05/27 11:08:15;;;;;;;5.70;4.73;;;;;;;;;;5048760;28;20346;-78
2023/05/27 11:10:42;;;;;;;5.57;4.70;;;;;;;;;;5049076;28;20214;-77
2023/05/27 11:13:09;;;;;;;4.80;4.03;;;;;;;;;;5048563;28;20234;-77
2023/05/27 11:15:36;;;;;;;5.13;4.53;;;;;;;;;;5048950;28;20209;-78
2023/05/27 11:18:04;;;;;;;4.43;4.13;;;;;;;;;;5043399;27;20750;-82
2023/05/27 11:20:37;;;;;;;5.13;4.13;;;;;;;;;;5040319;28;20217;-81
2023/05/27 11:23:06;;;;;;;5.37;3.80;;;;;;;;;;5048579;28;20206;-80
2023/05/27 11:25:44;;;;;;;4.83;4.30;;;;;;;;;;5034398;28;20207;-80
2023/05/27 11:28:17;;;;;;;4.77;4.37;;;;;;;;;;5028272;28;20673;-80
2023/05/27 11:30:44;;;;;;;6.03;4.97;;;;;;;;;;5028857;28;20202;-80
2023/05/27 11:33:11;;;;;;;5.07;4.13;;;;;;;;;;5028633;28;20346;-80
2023/05/27 11:35:39;;;;;;;5.10;4.60;;;;;;;;;;5028421;28;20255;-80
2023/05/27 11:38:17;;;;;;;4.77;3.83;;;;;;;;;;5028407;28;20203;-81
2023/05/27 11:40:44;;;;;;;5.10;4.60;;;;;;;;;;5028494;28;20285;-80
2023/05/27 11:43:17;;;;;;;5.60;4.10;;;;;;;;;;5028903;28;20211;-80
2023/05/27 11:45:44;;;;;;;7.03;4.57;;;;;;;;;;5028844;28;20624;-80
2023/05/27 11:48:11;;;;;;;4.73;4.30;;;;;;;;;;5028271;28;20226;-80
2023/05/27 11:50:39;;;;;;;5.03;3.97;;;;;;;;;;5028434;28;20210;-80
2023/05/27 11:53:06;;;;;;;5.60;4.40;;;;;;;;;;5014775;28;20234;-80
2023/05/27 11:55:33;;;;;;;4.53;4.23;;;;;;;;;;5009415;28;20227;-80
2023/05/27 11:57:59;;;;;;;4.73;4.23;;;;;;;;;;5027802;28;20207;-80
2023/05/27 12:00:27;;;;;;;5.97;4.10;;;;;;;;;;5027620;28;20206;-80
2023/05/27 12:02:54;;;;;;;4.27;3.70;;;;;;;;;;5028374;28;20240;-80
2023/05/27 12:05:20;;;;;;;5.30;3.97;;;;;;;;;;5028236;28;20210;-80
2023/05/27 12:07:49;;;;;;;4.10;3.70;;;;;;;;;;5037755;28;20215;-81
2023/05/27 12:10:16;;;;;;;4.20;3.90;;;;;;;;;;5043361;28;20210;-81
2023/05/27 12:12:46;;;;;;;6.13;3.87;;;;;;;;;;5046186;28;20234;-80
2023/05/27 12:15:12;;;;;;;4.33;4.03;;;;;;;;;;5047746;28;20206;-80
2023/05/27 12:17:39;;;;;;;5.70;4.77;;;;;;;;;;5047121;28;20206;-80
2023/05/27 12:20:08;;;;;;;14.73;12.00;;;;;;;;;;5047607;28;20219;-80
2023/05/27 12:22:35;;;;;;;21.90;13.77;;;;;;;;;;5047520;28;20209;-79
2023/05/27 12:25:04;;;;;;;13.20;8.23;;;;;;;;;;5048009;28;20206;-79
2023/05/27 12:27:31;;;;;;;7.17;6.53;;;;;;;;;;5035172;28;20320;-80
2023/05/27 12:29:58;;;;;;;5.33;4.83;;;;;;;;;;5048301;28;20258;-80
2023/05/27 12:32:25;;;;;;;7.50;6.80;;;;;;;;;;5047360;28;20234;-80
2023/05/27 12:34:52;;;;;;;6.53;5.93;;;;;;;;;;5047869;28;20213;-81
2023/05/27 12:37:20;;;;;;;6.33;4.90;;;;;;;;;;5047458;28;20209;-81
2023/05/27 12:39:46;;;;;;;9.53;5.67;;;;;;;;;;5047850;28;20209;-81
2023/05/27 12:42:17;;;;;;;6.60;6.10;;;;;;;;;;5047406;28;20206;-80
2023/05/27 12:44:44;;;;;;;4.87;4.30;;;;;;;;;;5047324;28;20686;-81
2023/05/27 12:47:11;;;;;;;4.67;4.10;;;;;;;;;;5047322;28;20226;-80
2023/05/27 12:49:38;;;;;;;5.07;4.60;;;;;;;;;;5047645;28;20198;-80
2023/05/27 12:52:08;;;;;;;4.47;4.17;;;;;;;;;;5046984;28;20229;-80
2023/05/27 12:54:34;;;;;;;5.10;4.60;;;;;;;;;;5047446;28;20228;-80
2023/05/27 12:57:04;;;;;;;4.93;4.50;;;;;;;;;;5046724;28;20632;-80
2023/05/27 12:59:33;;;;;;;6.03;4.93;;;;;;;;;;5047037;28;20216;-80
2023/05/27 13:02:00;;;;;;;4.93;4.40;;;;;;;;;;5047324;28;20205;-81
2023/05/27 13:04:27;;;;;;;9.70;7.97;;;;;;;;;;5047160;28;20223;-80
2023/05/27 13:06:55;;;;;;;24.23;15.00;;;;;;;;;;5046611;28;20694;-80
2023/05/27 13:09:22;;;;;;;11.27;7.80;;;;;;;;;;5047016;28;20209;-80
2023/05/27 13:11:48;;;;;;;11.83;10.57;;;;;;;;;;5047157;28;20719;-80
2023/05/27 13:14:15;;;;;;;6.47;5.87;;;;;;;;;;5030940;28;20206;-78
2023/05/27 13:16:45;;;;;;;9.20;7.17;;;;;;;;;;5047161;28;20643;-78
2023/05/27 13:19:12;;;;;;;5.23;4.50;;;;;;;;;;5047170;28;20213;-78
2023/05/27 13:21:38;;;;;;;6.00;5.00;;;;;;;;;;5046916;28;20202;-78
2023/05/27 13:24:05;;;;;;;12.50;11.30;;;;;;;;;;5046486;28;20993;-77
2023/05/27 13:26:33;;;;;;;30.37;21.37;;;;;;;;;;5047210;28;20198;-77
2023/05/27 13:29:00;;;;;;;12.97;10.87;;;;;;;;;;5048697;28;20780;-78
2023/05/27 13:31:27;;;;;;;9.60;8.40;;;;;;;;;;5040369;28;20199;-78
2023/05/27 13:33:55;;;;;;;5.23;4.83;;;;;;;;;;5029983;28;20234;-78
2023/05/27 13:36:22;;;;;;;12.27;11.13;;;;;;;;;;5049643;28;20275;-79
2023/05/27 13:38:49;;;;;;;13.00;9.37;;;;;;;;;;5050232;28;20228;-79
2023/05/27 13:41:17;;;;;;;6.43;5.83;;;;;;;;;;5050428;28;20210;-78
2023/05/27 13:43:48;;;;;;;5.23;3.93;;;;;;;;;;5052097;28;20748;-78
2023/05/27 13:46:15;;;;;;;4.97;4.50;;;;;;;;;;5050701;28;20353;-79
2023/05/27 13:48:42;;;;;;;4.97;4.57;;;;;;;;;;5049718;28;20226;-78
2023/05/27 13:51:10;;;;;;;6.63;4.80;;;;;;;;;;5050403;28;20209;-78
2023/05/27 13:53:37;;;;;;;5.33;4.73;;;;;;;;;;5049977;28;20229;-78
2023/05/27 13:56:04;;;;;;;4.30;4.00;;;;;;;;;;5049988;28;20669;-78
2023/05/27 13:58:32;;;;;;;5.67;5.17;;;;;;;;;;5049697;28;20202;-78
2023/05/27 14:00:59;;;;;;;5.53;4.70;;;;;;;;;;5050115;28;20198;-78
2023/05/27 14:03:26;;;;;;;6.07;5.17;;;;;;;;;;5048464;28;20281;-77
2023/05/27 14:05:52;;;;;;;5.77;5.17;;;;;;;;;;5050003;28;20675;-78
2023/05/27 14:08:21;;;;;;;5.43;4.47;;;;;;;;;;5049354;28;20647;-79
2023/05/27 14:10:47;;;;;;;6.13;5.13;;;;;;;;;;5049703;28;20684;-79
2023/05/27 14:13:15;;;;;;;5.20;4.80;;;;;;;;;;5040592;28;20283;-79
2023/05/27 14:15:42;;;;;;;5.07;4.77;;;;;;;;;;5042200;28;20206;-79
2023/05/27 14:18:09;;;;;;;9.40;5.23;;;;;;;;;;5049766;28;20198;-79
2023/05/27 14:20:35;;;;;;;5.17;4.67;;;;;;;;;;5049887;28;20659;-79
2023/05/27 14:23:04;;;;;;;5.87;5.30;;;;;;;;;;5049141;28;20206;-77
2023/05/27 14:25:32;;;;;;;7.90;5.37;;;;;;;;;;5050002;28;20653;-78
2023/05/27 14:28:03;;;;;;;5.60;5.10;;;;;;;;;;5023851;28;20209;-76
2023/05/27 14:30:30;;;;;;;6.10;5.60;;;;;;;;;;5049307;28;20233;-77
2023/05/27 14:33:01;;;;;;;5.40;4.90;;;;;;;;;;5048951;28;20241;-79
2023/05/27 14:35:28;;;;;;;6.07;5.47;;;;;;;;;;5049735;28;20198;-83
2023/05/27 14:37:55;;;;;;;7.10;5.50;;;;;;;;;;5041110;28;20211;-80
2023/05/27 14:40:21;;;;;;;7.00;5.27;;;;;;;;;;5043520;28;20255;-78
2023/05/27 14:42:49;;;;;;;4.67;4.20;;;;;;;;;;5049299;28;20636;-78
2023/05/27 14:45:18;;;;;;;7.97;5.10;;;;;;;;;;5049347;28;20273;-80